sensor_id;sensor_type;location;lat;lon;timestamp;pressure;altitude;pressure_sealevel;temperature;humidity
10921;BME280;5513;50.580;8.818;2023-06-22T00:01:03;99227.00;;;24.05;100.00
10921;BME280;5513;50.580;8.818;2023-06-22T00:03:33;99214.78;;;24.09;100.00
10921;BME280;5513;50.580;8.818;2023-06-22T00:06:03;99203.00;;;24.02;100.00
10921;BME280;5513;50.580;8.818;2023-06-22T00:08:32;99193.78;;;23.96;100.00
10921;BME280;5513;50.580;8.818;2023-06-22T00:11:00;99179.34;;;24.04;100.00
10921;BME280;5513;50.580;8.818;2023-06-22T00:13:30;99165.88;;;24.10;100.00
10921;BME280;5513;50.580;8.818;2023-06-22T00:15:58;99142.28;;;24.04;100.00
10921;BME280;5513;50.580;8.818;2023-06-22T00:18:29;99113.06;;;23.85;100.00
10921;BME280;5513;50.580;8.818;2023-06-22T00:20:59;99075.72;;;23.80;100.00
10921;BME280;5513;50.580;8.818;2023-06-22T00:23:29;99051.72;;;23.62;100.00
10921;BME280;5513;50.580;8.818;2023-06-22T00:26:02;99061.38;;;23.57;100.00
10921;BME280;5513;50.580;8.818;2023-06-22T00:28:32;99082.53;;;23.53;100.00
10921;BME280;5513;50.580;8.818;2023-06-22T00:31:00;99086.25;;;23.37;100.00
10921;BME280;5513;50.580;8.818;2023-06-22T00:33:29;99101.97;;;23.11;100.00
10921;BME280;5513;50.580;8.818;2023-06-22T00:35:57;99110.56;;;22.83;100.00
10921;BME280;5513;50.580;8.818;2023-06-22T00:38:25;99125.03;;;22.60;100.00
10921;BME280;5513;50.580;8.818;2023-06-22T00:40:54;99123.78;;;22.78;100.00
10921;BME280;5513;50.580;8.818;2023-06-22T00:43:22;99124.66;;;22.71;100.00
10921;BME280;5513;50.580;8.818;2023-06-22T00:45:52;99127.63;;;22.84;100.00
10921;BME280;5513;50.580;8.818;2023-06-22T00:48:25;99139.38;;;22.99;100.00
10921;BME280;5513;50.580;8.818;2023-06-22T00:50:53;99152.53;;;23.02;100.00
10921;BME280;5513;50.580;8.818;2023-06-22T00:53:22;99149.03;;;22.94;100.00
10921;BME280;5513;50.580;8.818;2023-06-22T00:55:51;99161.28;;;23.04;100.00
10921;BME280;5513;50.580;8.818;2023-06-22T00:58:21;99156.50;;;23.14;100.00
10921;BME280;5513;50.580;8.818;2023-06-22T01:00:49;99165.59;;;22.91;100.00
10921;BME280;5513;50.580;8.818;2023-06-22T01:03:19;99168.72;;;23.02;100.00
10921;BME280;5513;50.580;8.818;2023-06-22T01:05:49;99169.56;;;23.03;100.00
10921;BME280;5513;50.580;8.818;2023-06-22T01:08:28;99173.66;;;22.99;100.00
10921;BME280;5513;50.580;8.818;2023-06-22T01:11:03;;;;22.89;
10921;BME280;5513;50.580;8.818;2023-06-22T01:13:48;99185.72;;;22.80;100.00
10921;BME280;5513;50.580;8.818;2023-06-22T01:16:23;99191.59;;;22.83;100.00
10921;BME280;5513;50.580;8.818;2023-06-22T01:18:57;99204.66;;;22.72;100.00
10921;BME280;5513;50.580;8.818;2023-06-22T01:21:30;99208.22;;;22.64;100.00
10921;BME280;5513;50.580;8.818;2023-06-22T01:24:11;99215.16;;;22.59;100.00
10921;BME280;5513;50.580;8.818;2023-06-22T01:26:54;99225.97;;;22.59;100.00
10921;BME280;5513;50.580;8.818;2023-06-22T01:29:28;99231.03;;;22.53;100.00
10921;BME280;5513;50.580;8.818;2023-06-22T01:31:57;99252.84;;;22.19;100.00
10921;BME280;5513;50.580;8.818;2023-06-22T01:34:28;99264.75;;;21.60;100.00
10921;BME280;5513;50.580;8.818;2023-06-22T01:36:59;99280.03;;;21.27;100.00
10921;BME280;5513;50.580;8.818;2023-06-22T01:39:29;99292.53;;;21.10;100.00
10921;BME280;5513;50.580;8.818;2023-06-22T01:42:01;99305.81;;;20.69;100.00
10921;BME280;5513;50.580;8.818;2023-06-22T01:44:32;99313.50;;;20.90;100.00
10921;BME280;5513;50.580;8.818;2023-06-22T01:47:02;99309.25;;;21.13;100.00
10921;BME280;5513;50.580;8.818;2023-06-22T01:49:31;99319.97;;;21.39;100.00
10921;BME280;5513;50.580;8.818;2023-06-22T01:52:00;99326.47;;;21.63;100.00
10921;BME280;5513;50.580;8.818;2023-06-22T01:54:29;99320.97;;;21.38;100.00
10921;BME280;5513;50.580;8.818;2023-06-22T01:56:58;99300.94;;;21.33;100.00
10921;BME280;5513;50.580;8.818;2023-06-22T01:59:34;99302.50;;;21.60;100.00
10921;BME280;5513;50.580;8.818;2023-06-22T02:02:08;99293.56;;;21.59;100.00
10921;BME280;5513;50.580;8.818;2023-06-22T02:04:43;99277.94;;;21.63;100.00
10921;BME280;5513;50.580;8.818;2023-06-22T02:07:17;99271.53;;;21.72;100.00
10921;BME280;5513;50.580;8.818;2023-06-22T02:09:51;99255.69;;;21.77;100.00
10921;BME280;5513;50.580;8.818;2023-06-22T02:12:22;99247.25;;;21.80;100.00
10921;BME280;5513;50.580;8.818;2023-06-22T02:14:53;99253.16;;;21.67;100.00
10921;BME280;5513;50.580;8.818;2023-06-22T02:17:23;99249.94;;;21.80;100.00
10921;BME280;5513;50.580;8.818;2023-06-22T02:19:52;99245.56;;;21.79;100.00
10921;BME280;5513;50.580;8.818;2023-06-22T02:22:20;99242.38;;;21.67;100.00
10921;BME280;5513;50.580;8.818;2023-06-22T02:24:50;99239.50;;;21.53;100.00
10921;BME280;5513;50.580;8.818;2023-06-22T02:27:20;99239.44;;;21.36;100.00
10921;BME280;5513;50.580;8.818;2023-06-22T02:29:48;99234.56;;;21.40;100.00
10921;BME280;5513;50.580;8.818;2023-06-22T02:32:19;99235.75;;;21.37;100.00
10921;BME280;5513;50.580;8.818;2023-06-22T02:34:47;99236.06;;;21.26;100.00
10921;BME280;5513;50.580;8.818;2023-06-22T02:37:17;99242.97;;;21.29;100.00
10921;BME280;5513;50.580;8.818;2023-06-22T02:39:46;99245.84;;;21.35;100.00
10921;BME280;5513;50.580;8.818;2023-06-22T02:42:14;99243.50;;;21.40;100.00
10921;BME280;5513;50.580;8.818;2023-06-22T02:44:48;99238.44;;;21.37;100.00
10921;BME280;5513;50.580;8.818;2023-06-22T02:47:18;99224.16;;;21.53;100.00
10921;BME280;5513;50.580;8.818;2023-06-22T02:49:46;99215.06;;;21.54;100.00
10921;BME280;5513;50.580;8.818;2023-06-22T02:52:15;99201.06;;;21.42;100.00
10921;BME280;5513;50.580;8.818;2023-06-22T02:54:43;99180.16;;;21.28;100.00
10921;BME280;5513;50.580;8.818;2023-06-22T02:57:13;99164.47;;;21.24;100.00
10921;BME280;5513;50.580;8.818;2023-06-22T02:59:41;99176.47;;;21.37;100.00
10921;BME280;5513;50.580;8.818;2023-06-22T03:02:11;99196.69;;;21.33;100.00
10921;BME280;5513;50.580;8.818;2023-06-22T03:04:41;99198.19;;;21.36;100.00
10921;BME280;5513;50.580;8.818;2023-06-22T03:07:10;99180.00;;;21.46;100.00
10921;BME280;5513;50.580;8.818;2023-06-22T03:09:41;99180.16;;;21.36;100.00
10921;BME280;5513;50.580;8.818;2023-06-22T03:12:11;99184.88;;;21.26;100.00
10921;BME280;5513;50.580;8.818;2023-06-22T03:14:39;99185.81;;;21.09;100.00
10921;BME280;5513;50.580;8.818;2023-06-22T03:17:09;99187.00;;;21.23;100.00
10921;BME280;5513;50.580;8.818;2023-06-22T03:19:41;99192.28;;;21.32;100.00
10921;BME280;5513;50.580;8.818;2023-06-22T03:22:09;99187.69;;;21.17;100.00
10921;BME280;5513;50.580;8.818;2023-06-22T03:24:40;99185.31;;;21.22;100.00
10921;BME280;5513;50.580;8.818;2023-06-22T03:27:09;99195.78;;;21.25;100.00
10921;BME280;5513;50.580;8.818;2023-06-22T03:29:38;99189.31;;;21.01;100.00
10921;BME280;5513;50.580;8.818;2023-06-22T03:32:07;99187.31;;;21.11;100.00
10921;BME280;5513;50.580;8.818;2023-06-22T03:34:35;99188.50;;;21.09;100.00
10921;BME280;5513;50.580;8.818;2023-06-22T03:37:06;99178.22;;;21.12;100.00
10921;BME280;5513;50.580;8.818;2023-06-22T03:39:34;99184.66;;;21.20;100.00
10921;BME280;5513;50.580;8.818;2023-06-22T03:42:04;99182.19;;;21.26;100.00
10921;BME280;5513;50.580;8.818;2023-06-22T03:44:33;99179.56;;;21.08;100.00
10921;BME280;5513;50.580;8.818;2023-06-22T03:47:03;99178.78;;;21.32;100.00
10921;BME280;5513;50.580;8.818;2023-06-22T03:49:34;99181.28;;;21.18;100.00
10921;BME280;5513;50.580;8.818;2023-06-22T03:52:07;99178.97;;;21.31;100.00
10921;BME280;5513;50.580;8.818;2023-06-22T03:54:37;99182.84;;;21.28;100.00
10921;BME280;5513;50.580;8.818;2023-06-22T03:57:07;99174.41;;;21.23;100.00
10921;BME280;5513;50.580;8.818;2023-06-22T03:59:36;99181.50;;;21.32;100.00
10921;BME280;5513;50.580;8.818;2023-06-22T04:02:04;99183.47;;;21.22;100.00
10921;BME280;5513;50.580;8.818;2023-06-22T04:04:33;99184.31;;;21.14;100.00
10921;BME280;5513;50.580;8.818;2023-06-22T04:07:03;99184.78;;;21.10;100.00
10921;BME280;5513;50.580;8.818;2023-06-22T04:09:33;99186.28;;;20.96;100.00
10921;BME280;5513;50.580;8.818;2023-06-22T04:12:01;99200.25;;;21.00;100.00
10921;BME280;5513;50.580;8.818;2023-06-22T04:14:30;99204.94;;;20.90;100.00
10921;BME280;5513;50.580;8.818;2023-06-22T04:16:59;99206.28;;;20.94;100.00
10921;BME280;5513;50.580;8.818;2023-06-22T04:19:27;99205.28;;;20.86;100.00
10921;BME280;5513;50.580;8.818;2023-06-22T04:21:55;99205.44;;;20.85;100.00
10921;BME280;5513;50.580;8.818;2023-06-22T04:24:24;99218.78;;;20.61;100.00
10921;BME280;5513;50.580;8.818;2023-06-22T04:26:54;99210.78;;;20.77;100.00
10921;BME280;5513;50.580;8.818;2023-06-22T04:29:22;99207.38;;;20.75;100.00
10921;BME280;5513;50.580;8.818;2023-06-22T04:31:57;99206.41;;;20.84;100.00
10921;BME280;5513;50.580;8.818;2023-06-22T04:34:31;99208.06;;;20.69;100.00
10921;BME280;5513;50.580;8.818;2023-06-22T04:36:59;99216.00;;;20.78;100.00
10921;BME280;5513;50.580;8.818;2023-06-22T04:39:28;99220.00;;;20.66;100.00
10921;BME280;5513;50.580;8.818;2023-06-22T04:41:58;99221.97;;;20.64;100.00
10921;BME280;5513;50.580;8.818;2023-06-22T04:44:27;99211.09;;;20.74;100.00
10921;BME280;5513;50.580;8.818;2023-06-22T04:46:58;99206.53;;;20.66;100.00
10921;BME280;5513;50.580;8.818;2023-06-22T04:49:30;99206.53;;;20.74;100.00
10921;BME280;5513;50.580;8.818;2023-06-22T04:52:05;99206.91;;;20.79;100.00
10921;BME280;5513;50.580;8.818;2023-06-22T04:54:35;99209.94;;;20.76;100.00
10921;BME280;5513;50.580;8.818;2023-06-22T04:57:07;99203.22;;;20.80;100.00
10921;BME280;5513;50.580;8.818;2023-06-22T04:59:37;99206.63;;;20.91;100.00
10921;BME280;5513;50.580;8.818;2023-06-22T05:02:09;99207.16;;;20.94;100.00
10921;BME280;5513;50.580;8.818;2023-06-22T05:04:38;99209.81;;;20.86;100.00
10921;BME280;5513;50.580;8.818;2023-06-22T05:07:09;99215.69;;;20.90;100.00
10921;BME280;5513;50.580;8.818;2023-06-22T05:09:38;99213.53;;;20.93;100.00
10921;BME280;5513;50.580;8.818;2023-06-22T05:12:10;99210.69;;;21.03;100.00
10921;BME280;5513;50.580;8.818;2023-06-22T05:14:39;99212.75;;;21.09;100.00
10921;BME280;5513;50.580;8.818;2023-06-22T05:17:07;99209.25;;;21.25;100.00
10921;BME280;5513;50.580;8.818;2023-06-22T05:19:43;99193.81;;;21.35;100.00
10921;BME280;5513;50.580;8.818;2023-06-22T05:22:14;99190.28;;;21.42;100.00
10921;BME280;5513;50.580;8.818;2023-06-22T05:24:43;99207.59;;;21.32;100.00
10921;BME280;5513;50.580;8.818;2023-06-22T05:27:14;99204.94;;;21.56;100.00
10921;BME280;5513;50.580;8.818;2023-06-22T05:29:42;99207.47;;;21.58;100.00
10921;BME280;5513;50.580;8.818;2023-06-22T05:32:11;99205.63;;;21.66;100.00
10921;BME280;5513;50.580;8.818;2023-06-22T05:34:39;99200.06;;;21.84;100.00
10921;BME280;5513;50.580;8.818;2023-06-22T05:37:07;99202.94;;;21.91;100.00
10921;BME280;5513;50.580;8.818;2023-06-22T05:39:37;99199.22;;;22.08;100.00
10921;BME280;5513;50.580;8.818;2023-06-22T05:42:06;99186.91;;;22.22;100.00
10921;BME280;5513;50.580;8.818;2023-06-22T05:44:38;99177.28;;;22.19;100.00
10921;BME280;5513;50.580;8.818;2023-06-22T05:47:07;99178.81;;;22.22;100.00
10921;BME280;5513;50.580;8.818;2023-06-22T05:49:36;99178.81;;;22.14;100.00
10921;BME280;5513;50.580;8.818;2023-06-22T05:52:04;99176.06;;;22.38;100.00
10921;BME280;5513;50.580;8.818;2023-06-22T05:54:32;99173.53;;;22.37;100.00
10921;BME280;5513;50.580;8.818;2023-06-22T05:57:01;99185.81;;;22.47;100.00
10921;BME280;5513;50.580;8.818;2023-06-22T05:59:29;99179.91;;;22.52;100.00
10921;BME280;5513;50.580;8.818;2023-06-22T06:01:59;99172.44;;;22.62;100.00
10921;BME280;5513;50.580;8.818;2023-06-22T06:04:28;99172.53;;;22.77;100.00
10921;BME280;5513;50.580;8.818;2023-06-22T06:06:57;99166.63;;;22.81;100.00
10921;BME280;5513;50.580;8.818;2023-06-22T06:09:26;99157.09;;;23.02;100.00
10921;BME280;5513;50.580;8.818;2023-06-22T06:11:54;99155.00;;;23.12;100.00
10921;BME280;5513;50.580;8.818;2023-06-22T06:14:22;99148.19;;;23.16;100.00
10921;BME280;5513;50.580;8.818;2023-06-22T06:16:51;99150.09;;;23.38;100.00
10921;BME280;5513;50.580;8.818;2023-06-22T06:19:21;99162.22;;;23.42;100.00
10921;BME280;5513;50.580;8.818;2023-06-22T06:21:49;99157.72;;;23.58;100.00
10921;BME280;5513;50.580;8.818;2023-06-22T06:24:17;99156.00;;;23.65;100.00
10921;BME280;5513;50.580;8.818;2023-06-22T06:26:46;99148.16;;;23.70;100.00
10921;BME280;5513;50.580;8.818;2023-06-22T06:29:15;99142.81;;;23.62;100.00
10921;BME280;5513;50.580;8.818;2023-06-22T06:31:44;99143.47;;;23.64;100.00
10921;BME280;5513;50.580;8.818;2023-06-22T06:34:13;99144.38;;;23.79;100.00
10921;BME280;5513;50.580;8.818;2023-06-22T06:36:44;99152.50;;;23.79;100.00
10921;BME280;5513;50.580;8.818;2023-06-22T06:39:12;99146.69;;;23.67;100.00
10921;BME280;5513;50.580;8.818;2023-06-22T06:41:41;99139.06;;;23.86;100.00
10921;BME280;5513;50.580;8.818;2023-06-22T06:44:09;99132.03;;;24.14;100.00
10921;BME280;5513;50.580;8.818;2023-06-22T06:46:37;99125.84;;;24.20;100.00
10921;BME280;5513;50.580;8.818;2023-06-22T06:49:06;99120.00;;;24.32;100.00
10921;BME280;5513;50.580;8.818;2023-06-22T06:51:34;99128.75;;;24.19;100.00
10921;BME280;5513;50.580;8.818;2023-06-22T06:54:06;99129.97;;;24.31;100.00
10921;BME280;5513;50.580;8.818;2023-06-22T06:56:35;99131.03;;;24.45;100.00
10921;BME280;5513;50.580;8.818;2023-06-22T06:59:03;99121.47;;;24.64;100.00
10921;BME280;5513;50.580;8.818;2023-06-22T07:01:32;99121.53;;;24.70;100.00
10921;BME280;5513;50.580;8.818;2023-06-22T07:04:03;99123.84;;;24.52;100.00
10921;BME280;5513;50.580;8.818;2023-06-22T07:06:31;99127.63;;;24.58;100.00
10921;BME280;5513;50.580;8.818;2023-06-22T07:09:01;99119.91;;;24.54;100.00
10921;BME280;5513;50.580;8.818;2023-06-22T07:11:33;99109.59;;;24.65;100.00
10921;BME280;5513;50.580;8.818;2023-06-22T07:14:02;99108.66;;;24.72;100.00
10921;BME280;5513;50.580;8.818;2023-06-22T07:16:30;99112.41;;;24.71;100.00
10921;BME280;5513;50.580;8.818;2023-06-22T07:18:59;99107.22;;;24.91;100.00
10921;BME280;5513;50.580;8.818;2023-06-22T07:21:27;99106.38;;;24.91;100.00
10921;BME280;5513;50.580;8.818;2023-06-22T07:23:56;99106.75;;;24.88;100.00
10921;BME280;5513;50.580;8.818;2023-06-22T07:26:24;99095.38;;;25.14;100.00
10921;BME280;5513;50.580;8.818;2023-06-22T07:28:54;99083.69;;;25.34;100.00
10921;BME280;5513;50.580;8.818;2023-06-22T07:31:23;99084.41;;;25.22;100.00
10921;BME280;5513;50.580;8.818;2023-06-22T07:33:52;99095.63;;;25.19;100.00
10921;BME280;5513;50.580;8.818;2023-06-22T07:36:20;99087.50;;;25.40;100.00
10921;BME280;5513;50.580;8.818;2023-06-22T07:38:49;99086.50;;;25.48;100.00
10921;BME280;5513;50.580;8.818;2023-06-22T07:41:17;99087.44;;;25.83;100.00
10921;BME280;5513;50.580;8.818;2023-06-22T07:43:46;99083.00;;;25.75;100.00
10921;BME280;5513;50.580;8.818;2023-06-22T07:46:16;99078.53;;;25.89;100.00
10921;BME280;5513;50.580;8.818;2023-06-22T07:48:44;99091.34;;;25.74;100.00
10921;BME280;5513;50.580;8.818;2023-06-22T07:51:12;99088.34;;;25.90;100.00
10921;BME280;5513;50.580;8.818;2023-06-22T07:53:42;99082.09;;;25.89;100.00
10921;BME280;5513;50.580;8.818;2023-06-22T07:56:10;99089.19;;;25.90;100.00
10921;BME280;5513;50.580;8.818;2023-06-22T07:58:40;99079.38;;;25.89;100.00
10921;BME280;5513;50.580;8.818;2023-06-22T08:01:09;99089.25;;;25.97;100.00
10921;BME280;5513;50.580;8.818;2023-06-22T08:03:44;99078.50;;;26.23;100.00
10921;BME280;5513;50.580;8.818;2023-06-22T08:06:13;99079.28;;;26.45;100.00
10921;BME280;5513;50.580;8.818;2023-06-22T08:08:41;99066.13;;;26.49;100.00
10921;BME280;5513;50.580;8.818;2023-06-22T08:11:14;99055.69;;;26.46;100.00
10921;BME280;5513;50.580;8.818;2023-06-22T08:13:43;99053.03;;;26.66;100.00
10921;BME280;5513;50.580;8.818;2023-06-22T08:16:11;99047.63;;;26.79;100.00
10921;BME280;5513;50.580;8.818;2023-06-22T08:18:41;99047.47;;;26.94;100.00
10921;BME280;5513;50.580;8.818;2023-06-22T08:21:11;99033.03;;;26.93;100.00
10921;BME280;5513;50.580;8.818;2023-06-22T08:23:40;99033.03;;;27.00;100.00
10921;BME280;5513;50.580;8.818;2023-06-22T08:26:09;99034.13;;;27.25;100.00
10921;BME280;5513;50.580;8.818;2023-06-22T08:28:37;99033.94;;;27.53;100.00
10921;BME280;5513;50.580;8.818;2023-06-22T08:31:05;99035.19;;;27.64;100.00
10921;BME280;5513;50.580;8.818;2023-06-22T08:33:34;99026.16;;;27.57;100.00
10921;BME280;5513;50.580;8.818;2023-06-22T08:36:04;99031.00;;;27.61;100.00
10921;BME280;5513;50.580;8.818;2023-06-22T08:38:33;99022.19;;;27.86;100.00
10921;BME280;5513;50.580;8.818;2023-06-22T08:41:01;99032.03;;;27.54;100.00
10921;BME280;5513;50.580;8.818;2023-06-22T08:43:29;99032.22;;;27.85;100.00
10921;BME280;5513;50.580;8.818;2023-06-22T08:45:58;99023.00;;;28.00;100.00
10921;BME280;5513;50.580;8.818;2023-06-22T08:48:26;99011.59;;;28.22;100.00
10921;BME280;5513;50.580;8.818;2023-06-22T08:50:55;99016.81;;;28.24;100.00
10921;BME280;5513;50.580;8.818;2023-06-22T08:53:26;99013.94;;;28.12;100.00
10921;BME280;5513;50.580;8.818;2023-06-22T08:55:54;99002.03;;;28.58;100.00
10921;BME280;5513;50.580;8.818;2023-06-22T08:58:23;99004.56;;;28.53;100.00
10921;BME280;5513;50.580;8.818;2023-06-22T09:00:51;99006.56;;;28.71;100.00
10921;BME280;5513;50.580;8.818;2023-06-22T09:03:20;99008.94;;;28.99;100.00
10921;BME280;5513;50.580;8.818;2023-06-22T09:05:48;99006.28;;;28.86;100.00
10921;BME280;5513;50.580;8.818;2023-06-22T09:08:17;98996.53;;;28.65;100.00
10921;BME280;5513;50.580;8.818;2023-06-22T09:10:48;98996.63;;;28.90;100.00
10921;BME280;5513;50.580;8.818;2023-06-22T09:13:16;99000.53;;;29.00;100.00
10921;BME280;5513;50.580;8.818;2023-06-22T09:15:44;98994.50;;;28.92;100.00
10921;BME280;5513;50.580;8.818;2023-06-22T09:18:13;98990.41;;;29.32;100.00
10921;BME280;5513;50.580;8.818;2023-06-22T09:20:41;98986.56;;;29.65;100.00
10921;BME280;5513;50.580;8.818;2023-06-22T09:23:10;98990.72;;;29.68;100.00
10921;BME280;5513;50.580;8.818;2023-06-22T09:25:39;98989.13;;;29.60;100.00
10921;BME280;5513;50.580;8.818;2023-06-22T09:28:09;98990.88;;;29.54;100.00
10921;BME280;5513;50.580;8.818;2023-06-22T09:30:37;98996.25;;;29.61;100.00
10921;BME280;5513;50.580;8.818;2023-06-22T09:33:05;98987.94;;;28.99;100.00
10921;BME280;5513;50.580;8.818;2023-06-22T09:35:34;98981.03;;;29.53;100.00
10921;BME280;5513;50.580;8.818;2023-06-22T09:38:02;98969.56;;;29.81;100.00
10921;BME280;5513;50.580;8.818;2023-06-22T09:40:31;98973.59;;;29.97;100.00
10921;BME280;5513;50.580;8.818;2023-06-22T09:43:04;98973.66;;;29.90;100.00
10921;BME280;5513;50.580;8.818;2023-06-22T09:45:34;98964.28;;;29.86;100.00
10921;BME280;5513;50.580;8.818;2023-06-22T09:48:02;98960.63;;;30.11;100.00
10921;BME280;5513;50.580;8.818;2023-06-22T09:50:31;98955.38;;;30.28;100.00
10921;BME280;5513;50.580;8.818;2023-06-22T09:52:59;98951.09;;;30.50;100.00
10921;BME280;5513;50.580;8.818;2023-06-22T09:55:27;98944.75;;;30.68;100.00
10921;BME280;5513;50.580;8.818;2023-06-22T09:57:56;98941.34;;;30.54;98.95
10921;BME280;5513;50.580;8.818;2023-06-22T10:00:24;98941.44;;;30.17;100.00
10921;BME280;5513;50.580;8.818;2023-06-22T10:02:55;98944.31;;;30.23;100.00
10921;BME280;5513;50.580;8.818;2023-06-22T10:05:27;98934.25;;;30.35;100.00
10921;BME280;5513;50.580;8.818;2023-06-22T10:07:56;98929.06;;;30.45;100.00
10921;BME280;5513;50.580;8.818;2023-06-22T10:10:24;98922.03;;;30.67;100.00
10921;BME280;5513;50.580;8.818;2023-06-22T10:12:55;98922.06;;;30.49;100.00
10921;BME280;5513;50.580;8.818;2023-06-22T10:15:24;98933.72;;;30.86;100.00
10921;BME280;5513;50.580;8.818;2023-06-22T10:17:55;98931.19;;;31.38;98.66
10921;BME280;5513;50.580;8.818;2023-06-22T10:20:24;98923.88;;;30.97;100.00
10921;BME280;5513;50.580;8.818;2023-06-22T10:22:53;98926.88;;;31.19;98.28
10921;BME280;5513;50.580;8.818;2023-06-22T10:25:26;98926.31;;;31.28;93.54
10921;BME280;5513;50.580;8.818;2023-06-22T10:27:55;98921.72;;;30.57;97.88
10921;BME280;5513;50.580;8.818;2023-06-22T10:30:24;98907.69;;;30.84;98.68
10921;BME280;5513;50.580;8.818;2023-06-22T10:32:52;98897.75;;;31.24;89.97
10921;BME280;5513;50.580;8.818;2023-06-22T10:35:22;98885.72;;;31.49;86.96
10921;BME280;5513;50.580;8.818;2023-06-22T10:37:51;98883.91;;;31.66;82.09
10921;BME280;5513;50.580;8.818;2023-06-22T10:40:19;98877.81;;;31.64;79.91
10921;BME280;5513;50.580;8.818;2023-06-22T10:42:47;98871.41;;;31.58;79.08
10921;BME280;5513;50.580;8.818;2023-06-22T10:45:17;98868.88;;;31.69;79.07
10921;BME280;5513;50.580;8.818;2023-06-22T10:47:45;98865.75;;;32.17;76.46
10921;BME280;5513;50.580;8.818;2023-06-22T10:50:14;98860.28;;;32.45;72.98
10921;BME280;5513;50.580;8.818;2023-06-22T10:52:43;98852.56;;;32.76;67.35
10921;BME280;5513;50.580;8.818;2023-06-22T10:55:12;98855.81;;;32.56;66.47
10921;BME280;5513;50.580;8.818;2023-06-22T10:57:40;98854.38;;;32.37;67.18
10921;BME280;5513;50.580;8.818;2023-06-22T11:00:13;98842.16;;;32.61;66.12
10921;BME280;5513;50.580;8.818;2023-06-22T11:02:42;98840.75;;;32.75;64.79
10921;BME280;5513;50.580;8.818;2023-06-22T11:05:12;98831.25;;;32.33;65.32
10921;BME280;5513;50.580;8.818;2023-06-22T11:07:41;98830.13;;;32.45;67.13
10921;BME280;5513;50.580;8.818;2023-06-22T11:10:12;98826.84;;;32.32;66.27
10921;BME280;5513;50.580;8.818;2023-06-22T11:12:41;98827.47;;;32.22;66.53
10921;BME280;5513;50.580;8.818;2023-06-22T11:15:10;98823.03;;;32.50;64.90
10921;BME280;5513;50.580;8.818;2023-06-22T11:17:39;98822.81;;;32.68;63.00
10921;BME280;5513;50.580;8.818;2023-06-22T11:20:08;98813.06;;;32.77;63.68
10921;BME280;5513;50.580;8.818;2023-06-22T11:22:38;98806.84;;;32.65;64.82
10921;BME280;5513;50.580;8.818;2023-06-22T11:25:08;98798.88;;;32.63;62.55
10921;BME280;5513;50.580;8.818;2023-06-22T11:27:40;98794.47;;;32.45;63.79
10921;BME280;5513;50.580;8.818;2023-06-22T11:30:09;98789.72;;;32.41;64.56
10921;BME280;5513;50.580;8.818;2023-06-22T11:32:37;98781.25;;;32.93;62.38
10921;BME280;5513;50.580;8.818;2023-06-22T11:35:06;98772.84;;;32.66;65.21
10921;BME280;5513;50.580;8.818;2023-06-22T11:37:35;98768.84;;;32.90;65.48
10921;BME280;5513;50.580;8.818;2023-06-22T11:40:05;98765.25;;;32.90;59.96
10921;BME280;5513;50.580;8.818;2023-06-22T11:42:35;98763.88;;;32.37;61.74
10921;BME280;5513;50.580;8.818;2023-06-22T11:45:07;98754.94;;;32.80;59.88
10921;BME280;5513;50.580;8.818;2023-06-22T11:47:35;98741.84;;;33.43;54.63
10921;BME280;5513;50.580;8.818;2023-06-22T11:50:05;98745.84;;;33.57;51.32
10921;BME280;5513;50.580;8.818;2023-06-22T11:52:34;98741.06;;;33.47;50.84
10921;BME280;5513;50.580;8.818;2023-06-22T11:55:05;98739.13;;;33.26;53.86
10921;BME280;5513;50.580;8.818;2023-06-22T11:57:35;98734.16;;;33.23;51.42
10921;BME280;5513;50.580;8.818;2023-06-22T12:00:07;98730.06;;;33.03;49.35
10921;BME280;5513;50.580;8.818;2023-06-22T12:02:43;98726.13;;;33.38;47.96
10921;BME280;5513;50.580;8.818;2023-06-22T12:05:12;98720.56;;;34.09;46.89
10921;BME280;5513;50.580;8.818;2023-06-22T12:07:41;98717.44;;;34.32;46.82
10921;BME280;5513;50.580;8.818;2023-06-22T12:10:09;98720.50;;;34.36;46.55
10921;BME280;5513;50.580;8.818;2023-06-22T12:12:38;98712.50;;;33.97;46.94
10921;BME280;5513;50.580;8.818;2023-06-22T12:15:09;98722.56;;;34.51;45.48
10921;BME280;5513;50.580;8.818;2023-06-22T12:17:38;98724.41;;;34.77;45.20
10921;BME280;5513;50.580;8.818;2023-06-22T12:20:07;98718.28;;;34.70;44.77
10921;BME280;5513;50.580;8.818;2023-06-22T12:22:35;98722.75;;;34.76;45.65
10921;BME280;5513;50.580;8.818;2023-06-22T12:25:06;98719.53;;;34.52;46.76
10921;BME280;5513;50.580;8.818;2023-06-22T12:27:34;98713.56;;;33.96;48.60
10921;BME280;5513;50.580;8.818;2023-06-22T12:30:03;98718.47;;;33.89;49.46
10921;BME280;5513;50.580;8.818;2023-06-22T12:32:33;98713.34;;;33.76;50.28
10921;BME280;5513;50.580;8.818;2023-06-22T12:35:02;98696.94;;;33.86;50.34
10921;BME280;5513;50.580;8.818;2023-06-22T12:37:30;98698.84;;;34.44;48.81
10921;BME280;5513;50.580;8.818;2023-06-22T12:40:00;98703.97;;;34.73;48.32
10921;BME280;5513;50.580;8.818;2023-06-22T12:42:30;98692.16;;;35.30;46.62
10921;BME280;5513;50.580;8.818;2023-06-22T12:44:58;98691.03;;;34.68;47.89
10921;BME280;5513;50.580;8.818;2023-06-22T12:47:26;98690.91;;;34.48;49.22
10921;BME280;5513;50.580;8.818;2023-06-22T12:49:56;98679.13;;;34.21;51.63
10921;BME280;5513;50.580;8.818;2023-06-22T12:52:26;98667.41;;;33.98;52.42
10921;BME280;5513;50.580;8.818;2023-06-22T12:54:54;98667.16;;;34.37;51.28
10921;BME280;5513;50.580;8.818;2023-06-22T12:57:22;98663.19;;;34.60;50.22
10921;BME280;5513;50.580;8.818;2023-06-22T12:59:52;98665.06;;;34.54;49.96
10921;BME280;5513;50.580;8.818;2023-06-22T13:02:21;98656.59;;;34.56;50.47
10921;BME280;5513;50.580;8.818;2023-06-22T13:04:49;98646.66;;;33.58;53.53
10921;BME280;5513;50.580;8.818;2023-06-22T13:07:19;98644.34;;;33.72;54.21
10921;BME280;5513;50.580;8.818;2023-06-22T13:09:49;98647.06;;;33.40;56.34
10921;BME280;5513;50.580;8.818;2023-06-22T13:12:19;98639.84;;;33.88;55.17
10921;BME280;5513;50.580;8.818;2023-06-22T13:14:48;98632.91;;;33.85;55.44